Date,TemperatureHighF,TemperatureAvgF,TemperatureLowF,DewpointHighF,DewpointAvgF,DewpointLowF,HumidityHigh,HumidityAvg,HumidityLow,PressureMaxIn,PressureMinIn,WindSpeedMaxMPH,WindSpeedAvgMPH,GustSpeedMaxMPH,PrecipitationSumIn
2013-1-1,69,61,50,67,57,44,93,86,76,30.15,29.82,29,6,29,0.05
2013-1-2,50,44,41,44,40,37,97,85,74,30.29,30.12,19,4,19,0.17
2013-1-3,50,46,42,39,37,34,89,72,56,30.37,30.25,19,5,19,0.00
2013-1-4,50,48,45,42,40,37,89,72,67,30.40,30.30,23,7,23,0.00
2013-1-5,50,48,45,46,42,39,92,82,70,30.33,30.22,18,4,18,0.02
2013-1-6,63,51,42,49,44,40,92,80,56,30.33,30.22,15,3,15,0.00
2013-1-7,60,52,38,55,48,34,93,86,76,30.28,29.96,15,2,15,0.01
2013-1-8,68,64,57,66,62,55,96,94,92,29.96,29.72,29,6,29,0.09
2013-1-9,69,63,56,67,61,54,98,94,90,30.01,29.77,29,6,29,0.92
2013-1-10,69,58,52,56,53,49,96,83,59,30.08,29.99,16,3,16,0.01
2013-1-11,75,64,52,70,62,50,96,92,83,30.02,29.79,22,5,22,0.01
2013-1-12,76,71,69,72,69,68,96,94,84,29.81,29.60,33,14,33,0.00
2013-1-13,71,56,47,70,47,39,94,74,53,30.07,29.67,28,8,28,0.00
2013-1-14,50,46,43,44,40,36,92,80,66,30.16,30.03,18,6,18,0.00
2013-1-15,46,44,41,44,41,37,94,91,84,30.20,30.00,22,8,22,0.13
2013-1-16,59,46,36,38,30,21,84,57,23,30.36,30.18,28,9,28,0.00
2013-1-17,67,48,33,43,35,26,85,63,35,30.43,30.29,16,3,16,0.00
2013-1-18,65,52,39,51,44,35,89,76,54,30.47,30.28,13,2,13,0.00
2013-1-19,72,59,45,58,51,42,93,76,51,30.29,30.13,19,2,19,0.00
2013-1-20,72,59,46,60,53,44,95,81,59,30.22,30.07,14,2,14,0.01
2013-1-21,71,60,52,62,53,48,93,79,48,30.20,30.08,13,2,15,0.00
2013-1-22,72,60,48,61,54,45,94,81,58,30.27,30.13,16,2,16,0.00
2013-1-23,76,65,57,67,60,54,94,85,69,30.30,30.19,19,4,19,0.01
2013-1-24,80,67,60,68,62,58,95,85,64,30.26,30.10,25,7,25,0.00
2013-1-25,78,64,60,68,62,58,96,91,69,30.14,30.01,27,7,27,0.02
2013-1-26,76,68,63,67,63,61,94,84,66,30.11,30.01,29,8,29,0.00
2013-1-27,76,70,64,70,67,61,95,91,83,30.05,29.92,29,9,29,0.00
2013-1-28,76,71,69,71,68,67,95,91,82,30.04,29.87,31,13,31,0.00
2013-1-29,83,73,68,72,67,47,95,84,43,29.89,29.56,39,15,39,0.00
2013-1-30,70,62,52,47,26,13,44,27,12,30.22,29.72,35,12,35,0.00
2013-1-31,69,54,36,49,34,20,79,49,23,30.31,30.18,17,3,17,0.00
2013-2-1,70,61,54,56,51,46,89,71,45,30.31,30.18,20,3,20,0.00
2013-2-2,77,65,58,62,58,54,91,80,60,30.21,30.12,19,2,19,0.00
2013-2-3,73,63,51,64,58,49,95,85,66,30.26,29.99,14,3,14,0.01
2013-2-4,78,68,61,67,63,58,91,84,68,29.99,29.76,26,7,26,0.00
2013-2-5,83,69,60,72,65,58,96,87,60,29.93,29.82,17,4,17,0.00
2013-2-6,73,67,63,72,66,61,96,94,92,29.97,29.77,21,5,21,12.47
2013-2-7,76,68,62,70,65,60,95,91,80,29.96,29.84,12,2,12,2.99
2013-2-8,72,63,58,62,56,52,95,79,54,30.16,29.96,22,5,22,0.00
2013-2-9,73,68,61,69,65,58,94,90,85,30.04,29.76,28,9,28,0.00
2013-2-10,83,72,66,73,64,54,94,79,59,29.88,29.71,23,8,23,0.00
2013-2-11,66,63,59,60,58,55,94,85,70,29.94,29.84,22,6,22,0.00
2013-2-12,70,62,58,64,58,55,96,90,73,29.95,29.78,18,5,18,0.00
2013-2-13,64,56,47,57,47,41,91,71,46,30.15,29.94,20,4,20,0.00
2013-2-14,67,55,41,54,44,37,90,69,35,30.12,30.00,14,2,14,0.00
2013-2-15,71,60,46,59,50,42,91,71,47,30.27,30.02,22,3,22,0.01
2013-2-16,69,55,44,45,36,30,80,53,25,30.45,30.25,23,4,23,0.00
2013-2-17,70,58,39,59,49,36,92,74,47,30.25,29.97,31,8,31,0.00
2013-2-18,78,69,63,68,63,59,92,81,68,29.98,29.81,32,12,32,0.00
2013-2-19,68,63,61,63,54,47,96,73,59,30.17,29.96,23,6,23,0.00
2013-2-20,73,69,64,68,65,57,92,88,78,29.99,29.64,27,10,27,0.00
2013-2-21,83,74,67,71,64,52,93,74,50,29.77,29.56,33,11,33,0.00
2013-2-22,72,66,61,58,54,46,80,67,41,29.90,29.76,24,5,24,0.00
2013-2-23,76,61,50,55,49,43,95,67,41,30.00,29.83,18,5,18,0.00
2013-2-24,68,58,45,66,55,43,96,92,83,29.88,29.57,14,2,14,0.01
2013-2-25,74,67,55,68,42,16,97,51,11,29.86,29.49,47,16,47,0.00
2013-2-26,75,56,38,49,34,23,88,48,15,29.99,29.83,19,4,19,0.00
2013-2-27,78,62,46,60,44,30,95,60,18,30.15,29.84,24,4,24,0.00
2013-2-28,64,55,44,38,31,24,53,40,27,30.28,30.14,28,7,28,0.00
2013-3-1,71,56,43,49,34,23,78,46,20,30.26,30.10,22,3,22,0.00
2013-3-2,68,56,44,46,36,28,88,51,24,30.38,30.21,19,5,21,0.00
2013-3-3,71,56,36,54,43,26,78,62,40,30.26,29.98,26,8,26,0.00
2013-3-4,83,64,59,62,57,54,89,79,44,29.98,29.72,33,12,33,0.00
2013-3-5,72,64,58,64,45,27,94,56,23,30.28,29.77,33,9,33,0.00
2013-3-6,63,54,48,47,34,29,87,49,34,30.40,30.19,21,7,21,0.00
2013-3-7,72,62,50,62,57,47,95,82,66,30.20,30.07,24,6,24,0.00
2013-3-8,74,69,65,67,64,62,92,85,76,30.09,29.97,27,10,27,0.00
2013-3-9,76,70,67,68,66,64,92,87,75,29.98,29.63,35,14,35,0.00
2013-3-10,78,70,60,68,55,38,94,64,31,30.03,29.56,34,10,35,0.05
2013-3-11,74,62,51,45,34,25,74,39,17,30.14,29.97,27,6,27,0.00
2013-3-12,75,59,43,53,47,36,87,65,41,30.20,30.04,16,3,16,0.00
2013-3-13,72,60,46,60,53,44,96,78,56,30.37,30.19,17,3,17,0.00
2013-3-14,74,63,47,62,55,45,97,77,56,30.35,30.22,20,5,22,0.00
2013-3-15,77,65,49,64,58,47,96,79,55,30.24,30.02,28,8,28,0.00
2013-3-16,78,69,63,66,64,60,93,82,65,30.03,29.77,33,12,33,0.00
2013-3-17,81,72,65,70,66,63,94,85,69,29.82,29.62,28,10,28,0.00
2013-3-18,82,72,67,70,67,65,95,85,67,29.84,29.67,23,5,23,0.00
2013-3-19,78,71,65,69,67,60,95,87,74,29.94,29.77,17,4,18,0.00
2013-3-20,75,69,63,68,60,50,94,74,55,30.10,29.84,28,6,28,0.00
2013-3-21,75,68,62,66,62,58,91,80,63,30.01,29.64,25,8,25,0.00
2013-3-22,79,71,69,72,68,66,94,91,76,29.70,29.59,21,8,22,0.00
2013-3-23,84,74,66,72,69,64,96,86,63,29.66,29.53,15,2,15,0.00
2013-3-24,70,64,57,65,44,24,97,55,20,30.09,29.62,36,8,36,0.01
2013-3-25,62,55,47,39,34,26,65,46,26,30.31,30.09,21,5,22,0.00
2013-3-26,66,57,47,43,37,32,66,47,30,30.42,30.30,19,3,19,0.00
2013-3-27,67,60,50,58,50,39,81,68,57,30.32,30.15,23,5,23,0.00
2013-3-28,74,68,64,63,61,58,91,79,67,30.17,30.09,22,7,22,0.00
2013-3-29,77,69,62,66,63,60,93,82,63,30.14,30.02,29,7,29,0.00
2013-3-30,80,71,66,70,66,63,92,85,68,30.07,29.90,26,8,26,0.00
2013-3-31,80,73,68,71,68,66,95,86,72,29.94,29.75,27,10,27,0.00
2013-4-1,76,71,66,70,68,64,96,89,76,29.99,29.87,21,6,21,0.00
2013-4-2,78,73,69,72,69,68,94,89,81,29.95,29.73,18,6,18,0.00
2013-4-3,77,68,56,69,61,52,95,81,62,30.08,29.76,26,5,26,0.01
2013-4-4,77,63,54,52,50,46,86,65,35,30.16,30.01,23,7,23,0.00
2013-4-5,68,59,48,56,51,43,88,75,59,30.25,30.05,15,4,15,0.00
2013-4-6,77,68,59,63,60,56,90,78,59,30.07,29.86,32,9,32,0.00
2013-4-7,79,71,65,66,65,62,93,81,65,29.90,29.76,31,10,31,0.00
2013-4-8,79,73,69,70,69,66,93,87,74,29.79,29.62,32,12,32,0.00
2013-4-9,82,75,70,73,70,68,93,85,72,29.69,29.54,36,14,36,0.00
2013-4-10,83,73,58,75,69,51,93,88,57,29.81,29.58,31,11,31,0.00
2013-4-11,74,60,49,52,48,43,89,67,38,29.94,29.75,23,6,25,0.18
2013-4-12,74,63,49,63,57,47,96,81,65,29.93,29.83,21,4,21,0.00
2013-4-13,76,69,63,66,63,60,95,81,65,29.91,29.70,26,6,26,0.00
2013-4-14,88,75,65,74,69,63,95,83,59,29.75,29.62,23,7,23,0.00
2013-4-15,83,73,70,72,69,68,94,88,67,29.77,29.66,29,11,29,0.00
2013-4-16,79,75,72,73,71,70,95,89,81,29.84,29.72,23,9,23,0.00
2013-4-17,81,76,73,75,73,72,96,91,80,29.82,29.61,30,11,30,0.01
2013-4-18,83,70,60,76,64,48,95,82,60,30.01,29.58,36,10,36,0.01
2013-4-19,73,58,53,48,42,31,75,56,27,30.29,30.01,24,8,25,0.01
2013-4-20,71,60,43,56,48,37,88,66,40,30.19,30.00,19,4,19,0.00
2013-4-21,77,69,59,64,60,55,90,74,55,30.08,29.97,20,5,20,0.00
2013-4-22,80,72,66,68,66,63,93,82,65,30.04,29.88,18,6,18,0.00
2013-4-23,81,73,69,71,69,66,94,87,71,29.91,29.78,31,10,31,0.00
2013-4-24,73,62,50,71,58,47,94,87,69,30.17,29.90,24,6,27,0.02
2013-4-25,67,63,60,66,57,51,96,82,66,30.23,30.10,20,4,20,0.16
2013-4-26,70,69,67,69,68,66,96,96,95,30.12,30.02,14,4,14,0.01
2013-4-27,80,75,72,72,71,70,95,88,76,30.04,29.87,19,8,23,0.00
2013-4-28,78,71,66,71,68,64,95,90,79,29.99,29.80,28,3,28,0.18
2013-4-29,80,72,67,73,69,66,97,89,68,29.90,29.74,18,3,18,0.05
2013-4-30,82,70,64,74,67,62,96,90,70,29.79,29.67,27,5,27,1.28
2013-5-1,83,76,70,74,71,69,96,87,71,29.86,29.71,17,5,17,0.00
2013-5-2,79,70,55,72,62,44,95,78,60,30.24,29.80,32,9,32,0.02
2013-5-3,72,61,52,45,36,32,68,42,23,30.29,30.06,37,12,37,0.00
2013-5-4,80,64,48,56,47,37,85,58,24,30.08,29.87,21,5,21,0.00
2013-5-5,83,68,52,62,57,50,95,70,36,30.05,29.92,17,3,17,0.00
2013-5-6,79,68,57,66,59,55,96,75,50,30.08,29.94,18,3,18,0.00
2013-5-7,79,70,60,67,63,57,95,78,59,30.04,29.92,19,4,19,0.00
2013-5-8,80,74,68,70,68,66,93,83,68,29.98,29.87,26,8,26,0.00
2013-5-9,80,76,73,74,72,70,94,89,80,29.91,29.77,25,9,25,0.00
2013-5-10,78,75,73,76,73,68,95,92,81,29.91,29.77,19,4,19,0.03
2013-5-11,84,73,70,71,69,66,95,87,59,30.06,29.88,19,5,19,0.17
2013-5-12,77,72,64,71,64,59,93,77,62,30.14,30.00,20,4,20,0.14
2013-5-13,80,72,62,68,64,60,95,78,55,30.22,30.11,20,4,20,0.00
2013-5-14,82,75,70,72,69,66,89,82,67,30.18,30.02,22,6,22,0.00
2013-5-15,79,75,73,74,71,70,95,90,81,30.08,29.85,31,11,33,0.13
2013-5-16,84,75,72,76,72,70,92,89,76,29.87,29.70,30,13,30,0.00
2013-5-17,88,79,74,76,73,70,93,84,58,29.87,29.75,28,12,28,0.00
2013-5-18,86,79,76,75,74,71,93,83,64,29.88,29.78,31,12,31,0.00
2013-5-19,85,80,76,75,74,73,93,84,67,29.85,29.71,27,13,29,0.00
2013-5-20,85,79,76,76,75,73,93,86,74,29.80,29.68,31,12,31,0.00
2013-5-21,85,80,76,77,75,74,93,86,75,29.76,29.66,28,10,28,0.00
2013-5-22,85,80,77,77,76,74,95,86,74,29.85,29.74,17,5,17,0.00
2013-5-23,86,80,76,78,76,74,94,87,76,29.95,29.82,20,7,20,0.00
2013-5-24,86,81,75,76,75,70,92,84,70,30.04,29.92,24,9,24,0.00
2013-5-25,83,79,74,77,75,69,94,88,77,30.06,29.96,33,9,33,0.67
2013-5-26,85,80,77,75,74,72,91,82,69,30.04,29.93,23,8,23,0.00
2013-5-27,86,80,77,76,74,73,91,82,68,29.98,29.83,29,11,29,0.00
2013-5-28,86,80,78,77,75,74,89,85,72,29.88,29.75,33,13,33,0.00
2013-5-29,84,80,78,77,76,74,89,85,78,29.82,29.69,36,12,36,0.00
2013-5-30,87,82,78,78,76,75,91,84,72,29.80,29.71,27,11,27,0.00
2013-5-31,90,83,78,78,77,75,92,82,68,29.84,29.74,27,10,27,0.00
2013-6-1,90,83,79,79,77,75,89,81,69,29.85,29.75,29,13,29,0.00
2013-6-2,89,81,72,80,75,70,93,83,68,29.99,29.82,24,3,24,0.82
2013-6-3,88,80,72,77,73,70,96,81,67,29.92,29.78,14,2,14,0.00
2013-6-4,87,79,70,76,72,68,96,81,61,29.85,29.77,14,2,14,0.00
2013-6-5,89,81,72,77,74,69,95,80,55,29.83,29.75,16,3,16,0.00
2013-6-6,92,82,74,78,75,72,96,80,58,29.82,29.70,15,2,15,0.00
2013-6-7,89,80,71,78,75,68,93,84,67,29.90,29.80,28,2,30,0.41
2013-6-8,88,78,70,78,74,68,96,86,68,29.88,29.76,27,4,27,0.07
2013-6-9,91,84,79,80,77,74,93,81,63,29.89,29.77,20,6,20,0.03
2013-6-10,90,83,77,79,76,73,94,81,67,29.92,29.86,19,4,19,0.00
2013-6-11,89,83,77,79,76,73,91,79,65,29.98,29.90,21,5,21,0.00
2013-6-12,90,84,79,80,77,74,92,80,60,29.99,29.91,22,7,22,0.02
2013-6-13,88,82,80,80,77,75,90,86,70,29.99,29.88,19,4,19,0.02
2013-6-14,88,83,80,80,78,76,90,85,75,29.93,29.83,20,5,20,0.01
2013-6-15,90,84,79,78,76,73,91,78,60,29.93,29.84,21,7,21,0.00
2013-6-16,91,84,79,80,77,75,91,81,67,29.96,29.88,25,9,25,0.00
2013-6-17,91,82,80,80,77,75,91,85,65,29.93,29.82,25,8,25,0.00
2013-6-18,92,84,76,78,77,74,94,80,63,29.93,29.83,23,8,23,0.00
2013-6-19,91,84,77,78,76,74,92,78,60,29.96,29.87,24,8,24,0.00
2013-6-20,90,84,77,79,77,75,94,81,65,30.00,29.91,26,8,26,0.00
2013-6-21,90,84,78,78,76,73,92,79,61,30.03,29.95,22,7,23,0.00
2013-6-22,92,84,77,78,76,72,94,79,54,29.99,29.88,24,7,24,0.00
2013-6-23,90,82,77,77,76,72,92,81,59,29.95,29.86,27,8,27,0.00
2013-6-24,90,84,80,78,77,74,91,79,63,29.98,29.89,30,10,30,0.00
2013-6-25,89,84,79,78,76,75,91,80,65,29.97,29.87,30,12,30,0.00
2013-6-26,92,84,79,79,77,75,92,81,58,29.93,29.86,26,10,26,0.00
2013-6-27,91,83,77,78,76,74,94,81,63,29.97,29.88,20,6,22,0.00
2013-6-28,96,84,76,79,76,72,95,77,49,29.95,29.80,20,6,20,0.00
2013-6-29,99,86,76,78,74,71,93,70,42,29.84,29.68,19,7,19,0.00
2013-6-30,86,78,72,75,72,69,91,82,58,29.90,29.72,26,6,37,0.30
2013-7-1,94,82,72,77,72,67,94,74,44,29.92,29.80,15,2,15,0.00
2013-7-2,93,83,75,76,69,63,90,65,39,29.99,29.89,18,3,18,0.00
2013-7-3,92,79,71,74,70,66,92,76,43,29.98,29.86,16,3,18,0.00
2013-7-4,88,80,70,77,72,68,96,78,53,29.94,29.85,18,3,18,0.00
2013-7-5,90,82,70,78,73,68,95,76,51,29.92,29.80,16,4,17,0.00
2013-7-6,90,83,74,79,76,72,95,80,64,29.87,29.78,20,4,20,0.00
2013-7-7,91,83,77,78,75,72,93,79,57,29.94,29.83,27,5,27,0.00
2013-7-8,89,82,74,79,76,71,93,83,66,30.06,29.93,31,6,31,0.27
2013-7-9,90,84,78,80,77,75,94,80,64,30.08,29.98,21,5,21,0.00
2013-7-10,91,84,78,79,76,75,94,78,62,30.03,29.91,21,5,21,0.00
2013-7-11,91,84,76,78,76,73,92,77,57,29.97,29.86,20,6,22,0.00
2013-7-12,92,83,75,78,75,72,94,77,58,29.92,29.85,22,5,22,0.00
2013-7-13,92,83,74,78,74,71,95,76,52,29.93,29.84,18,4,18,0.00
2013-7-14,92,84,76,77,75,72,93,77,55,29.88,29.79,22,6,22,0.00
2013-7-15,90,84,79,78,76,74,88,78,65,29.93,29.81,24,8,24,0.00
2013-7-16,86,81,76,79,76,73,91,84,73,30.00,29.89,25,6,25,0.80
2013-7-17,80,76,74,76,74,72,95,92,86,30.10,29.98,19,1,19,1.85
2013-7-18,88,80,74,78,75,71,94,84,67,30.07,29.93,13,2,14,0.07
2013-7-19,89,83,75,79,75,72,94,79,62,30.00,29.87,18,4,18,0.00
2013-7-20,88,82,78,78,76,74,90,80,68,29.94,29.82,19,4,19,0.06
2013-7-21,90,84,79,80,78,76,92,81,65,29.92,29.84,23,8,23,0.00
2013-7-22,90,85,81,80,78,77,88,79,68,29.95,29.86,30,12,30,0.00
2013-7-23,90,84,79,79,77,75,88,79,66,29.97,29.86,30,10,30,0.00
2013-7-24,90,84,79,79,77,75,91,79,66,29.93,29.83,22,8,22,0.00
2013-7-25,92,84,77,80,77,74,92,80,64,29.98,29.92,22,6,22,0.00
2013-7-26,91,84,78,81,77,75,92,81,69,29.99,29.86,28,9,28,0.00
2013-7-27,92,84,78,80,77,75,91,79,61,29.92,29.77,21,10,25,0.00
2013-7-28,90,84,78,78,77,76,91,80,67,29.90,29.82,31,10,31,0.00
2013-7-29,89,84,79,78,77,75,91,80,66,30.01,29.89,32,12,32,0.00
2013-7-30,90,84,79,79,77,76,91,81,67,30.05,29.96,29,9,29,0.00
2013-7-31,91,83,76,79,76,73,92,80,64,30.04,29.92,19,5,19,0.00
2013-8-1,93,84,77,78,75,71,93,77,51,29.98,29.88,14,4,16,0.00
2013-8-2,92,84,76,78,75,72,93,77,54,29.95,29.86,22,5,22,0.00
2013-8-3,91,84,77,79,77,73,91,79,65,29.98,29.90,19,6,20,0.00
2013-8-4,91,85,80,79,77,74,90,78,60,30.01,29.92,23,8,25,0.00
2013-8-5,92,83,79,79,77,75,91,83,62,29.99,29.87,30,8,30,0.00
2013-8-6,92,85,79,79,77,76,91,79,61,29.91,29.81,30,12,30,0.00
2013-8-7,92,84,78,79,77,75,91,79,62,29.89,29.79,33,12,33,0.00
2013-8-8,92,84,78,80,77,75,91,80,65,29.87,29.78,23,8,24,0.00
2013-8-9,92,81,75,79,75,73,93,84,60,29.92,29.82,17,2,17,0.01
2013-8-10,92,85,78,81,78,75,93,80,61,29.96,29.89,17,3,17,0.00
2013-8-11,94,84,78,79,76,74,91,78,58,30.00,29.92,17,3,19,0.00
2013-8-12,92,84,75,79,76,72,93,79,62,30.02,29.92,17,4,17,0.00
2013-8-13,94,85,77,79,77,74,92,78,58,29.99,29.85,21,6,21,0.00
2013-8-14,96,85,76,79,76,68,93,76,49,29.95,29.84,20,6,20,0.00
2013-8-15,95,83,75,79,75,71,92,78,48,29.94,29.85,15,4,16,0.00
2013-8-16,94,85,78,79,76,73,91,77,55,29.96,29.84,23,3,23,0.00
2013-8-17,94,83,74,77,74,70,90,74,55,29.96,29.86,19,4,19,0.00
2013-8-18,92,82,74,77,72,66,92,71,45,29.98,29.90,18,3,18,0.00
2013-8-19,92,81,71,76,71,65,91,73,49,29.99,29.87,17,2,17,0.00
2013-8-20,82,78,75,76,74,72,92,86,79,29.98,29.88,14,2,14,0.18
2013-8-21,90,84,79,79,77,75,91,80,67,29.99,29.93,18,4,18,0.00
2013-8-22,93,82,75,78,76,73,92,81,59,30.01,29.88,16,2,16,0.00
2013-8-23,92,83,76,80,76,73,92,79,61,29.95,29.85,17,2,17,0.12
2013-8-24,92,84,75,79,76,72,93,78,59,29.96,29.88,20,4,20,0.00
2013-8-25,93,84,78,78,76,74,91,78,58,30.00,29.91,19,4,19,0.00
2013-8-26,85,79,75,79,75,70,93,89,76,30.04,29.95,20,2,20,1.41
2013-8-27,89,83,75,79,76,70,92,81,67,30.02,29.94,19,4,23,0.24
2013-8-28,92,84,75,80,76,72,93,78,56,30.03,29.94,18,3,18,0.00
2013-8-29,93,83,76,80,75,73,93,78,56,30.02,29.92,20,2,20,0.00
2013-8-30,92,83,75,78,74,72,93,77,56,29.99,29.87,15,3,15,0.00
2013-8-31,92,83,74,78,74,71,91,77,56,29.92,29.80,16,4,16,0.00
2013-9-1,92,84,75,79,76,72,93,78,59,29.88,29.79,18,5,19,0.00
2013-9-2,92,84,77,79,76,74,92,78,61,29.91,29.82,20,4,20,0.00
2013-9-3,93,84,75,78,75,72,92,77,58,29.96,29.85,16,2,16,0.00
2013-9-4,92,83,75,78,75,71,92,78,54,30.00,29.89,17,2,17,0.00
2013-9-5,91,84,77,79,76,73,91,78,60,30.00,29.93,18,4,18,0.00
2013-9-6,90,82,75,80,76,72,93,83,67,30.01,29.90,18,2,18,0.30
2013-9-7,89,81,74,79,75,71,92,83,69,29.97,29.86,21,2,21,0.19
2013-9-8,87,78,73,78,74,70,93,87,75,29.93,29.83,17,1,17,0.50
2013-9-9,87,81,76,78,75,71,92,83,69,29.90,29.82,25,6,25,0.40
2013-9-10,86,78,74,79,74,72,94,88,75,29.98,29.87,21,3,21,1.78
2013-9-11,85,79,75,79,75,73,93,88,78,30.00,29.92,15,2,16,0.63
2013-9-12,90,82,76,79,75,73,92,80,64,29.97,29.85,15,2,15,0.00
2013-9-13,89,81,75,78,75,72,92,82,68,29.89,29.75,19,2,19,0.00
2013-9-14,89,82,77,79,76,73,91,82,66,29.84,29.76,20,2,20,0.12
2013-9-15,88,83,79,79,76,74,89,81,71,29.88,29.79,25,5,25,0.20
2013-9-16,86,80,76,78,76,73,93,87,79,29.93,29.83,23,4,23,1.41
2013-9-17,88,82,78,80,77,73,92,83,72,29.95,29.85,23,4,23,0.10
2013-9-18,88,82,77,79,76,73,92,83,72,29.93,29.82,20,4,20,0.01
2013-9-19,89,82,77,80,77,74,93,84,71,29.86,29.76,19,3,19,0.30
2013-9-20,89,82,77,81,78,74,91,86,75,29.79,29.65,22,5,22,0.26
2013-9-21,78,76,73,74,70,67,91,84,74,29.78,29.67,28,6,28,0.86
2013-9-22,88,77,67,68,65,60,86,69,41,29.79,29.69,21,4,21,0.00
2013-9-23,90,77,68,77,69,62,89,77,62,29.76,29.68,17,2,17,0.00
2013-9-24,95,82,71,75,71,68,88,73,46,29.85,29.75,12,2,13,0.00
2013-9-25,94,81,71,75,71,63,88,73,41,29.85,29.74,14,2,14,0.01
2013-9-26,90,81,75,78,74,70,87,78,59,29.84,29.76,17,3,17,0.00
2013-9-27,89,84,80,79,77,74,84,79,71,29.85,29.76,24,7,24,0.00
2013-9-28,90,84,80,80,77,75,85,78,69,29.91,29.81,24,8,24,0.00
2013-9-29,89,80,75,76,73,71,87,80,64,29.97,29.83,14,2,14,0.00
2013-9-30,87,80,74,77,74,70,86,81,71,29.89,29.75,13,2,13,0.01
2013-10-1,90,83,78,79,76,72,86,79,65,29.85,29.76,21,6,22,0.00
2013-10-2,90,83,76,78,74,70,85,77,62,29.89,29.81,16,4,16,0.00
2013-10-3,88,82,75,77,73,70,85,77,60,29.88,29.80,18,4,18,0.00
2013-10-4,89,81,76,78,74,70,84,78,68,29.87,29.80,21,4,21,0.00
2013-10-5,88,79,73,78,73,68,86,80,69,29.89,29.80,15,2,15,0.00
2013-10-6,80,70,59,74,58,49,85,67,39,30.08,29.88,23,4,23,0.20
2013-10-7,86,69,56,59,53,45,82,60,27,30.12,30.00,13,2,13,0.00
2013-10-8,82,70,57,62,58,52,84,68,45,30.05,29.94,11,1,11,0.00
2013-10-9,84,75,63,69,65,58,85,72,56,30.00,29.91,13,2,13,0.00
2013-10-10,86,78,71,72,69,65,83,74,59,29.97,29.85,19,4,19,0.00
2013-10-11,88,82,78,78,75,71,84,79,69,29.87,29.78,23,7,23,0.00
2013-10-12,89,83,79,79,76,74,86,80,69,29.96,29.84,19,6,21,0.00
2013-10-13,87,81,77,77,74,71,85,80,67,30.06,29.93,19,4,19,0.00
2013-10-14,84,80,77,75,73,70,83,79,71,30.01,29.88,24,4,24,0.11
2013-10-15,86,80,74,75,71,68,85,76,64,29.92,29.81,19,4,19,0.00
2013-10-16,83,76,66,75,68,60,86,78,67,30.00,29.84,14,3,14,0.00
2013-10-17,80,70,64,65,61,57,82,74,57,30.05,29.91,15,3,15,0.00
2013-10-18,83,76,71,76,70,64,87,82,77,29.94,29.76,13,2,13,0.74
2013-10-19,77,68,60,72,59,49,86,72,43,30.08,29.84,22,6,22,0.04
2013-10-20,78,66,53,67,58,48,85,76,62,30.04,29.87,11,2,11,0.00
2013-10-21,81,74,69,74,68,63,87,83,76,29.92,29.80,21,2,21,1.35
2013-10-22,80,71,61,67,61,50,88,72,48,30.08,29.91,19,4,19,0.00
2013-10-23,82,66,53,59,51,43,85,62,27,30.15,30.06,12,2,12,0.00
2013-10-24,82,69,56,66,59,51,85,73,53,30.17,30.08,12,1,12,0.00
2013-10-25,82,73,63,71,65,58,86,76,65,30.23,30.13,20,4,20,0.00
2013-10-26,82,76,72,70,68,65,83,76,62,30.15,30.02,20,5,20,0.00
2013-10-27,85,75,67,73,68,63,88,80,62,30.04,29.93,15,1,15,0.00
2013-10-28,83,77,71,74,70,66,86,80,71,30.02,29.94,24,6,24,0.01
2013-10-29,84,79,76,75,72,70,84,79,71,30.04,29.92,26,8,26,0.00
2013-10-30,86,81,78,77,74,73,85,81,73,29.96,29.78,26,11,29,0.00
2013-10-31,89,81,75,77,73,68,87,78,56,29.84,29.73,26,7,26,0.26
2013-11-1,84,77,69,72,69,64,85,77,65,29.95,29.77,16,2,16,0.00
2013-11-2,73,68,64,68,51,45,85,54,38,30.20,29.95,27,9,27,0.00
2013-11-3,76,63,57,60,51,47,76,67,48,30.18,29.98,16,2,16,0.00
2013-11-4,79,71,62,67,62,56,83,76,58,30.00,29.88,9,1,10,0.00
2013-11-5,83,76,68,74,70,64,87,81,74,29.95,29.86,25,6,25,0.00
2013-11-6,88,75,60,75,68,52,87,79,58,30.19,29.91,27,5,27,0.33
2013-11-7,68,61,56,52,45,39,76,56,35,30.36,30.19,25,6,25,0.00
2013-11-8,71,63,57,60,54,45,84,71,58,30.31,30.10,19,4,19,0.00
2013-11-9,77,69,60,66,61,55,86,78,61,30.12,30.05,9,1,13,0.00
2013-11-10,72,68,65,64,61,55,87,78,60,30.22,30.09,19,2,19,0.00
2013-11-11,76,69,63,67,62,57,85,77,67,30.19,30.08,14,2,14,0.00
2013-11-12,75,65,57,62,56,48,86,74,54,30.49,30.14,29,8,29,0.00
2013-11-13,59,51,43,48,39,33,82,65,40,30.56,30.35,25,5,25,0.00
2013-11-14,67,57,43,60,50,38,86,78,70,30.35,29.99,12,1,12,0.00
2013-11-15,79,66,54,67,60,50,89,81,63,29.99,29.85,16,2,16,0.00
2013-11-16,79,73,65,73,68,61,89,85,81,29.88,29.74,25,6,25,0.01
2013-11-17,85,76,72,75,70,68,87,83,72,29.88,29.75,16,6,17,0.00
2013-11-18,83,75,69,75,70,64,89,84,74,30.01,29.88,16,2,16,0.01
2013-11-19,73,69,68,65,63,61,84,80,75,30.02,29.92,20,4,20,0.00
2013-11-20,82,74,69,73,69,64,86,83,73,29.93,29.80,15,4,15,0.00
2013-11-21,83,77,73,75,72,69,88,84,77,29.99,29.87,24,7,24,0.00
2013-11-22,78,60,42,74,56,38,92,87,79,30.28,29.97,26,6,26,0.09
2013-11-23,47,44,41,42,40,38,88,86,83,30.36,30.26,24,10,24,0.00
2013-11-24,47,45,42,43,41,38,89,85,80,30.37,30.24,22,6,22,0.11
2013-11-25,46,43,41,43,39,38,88,85,83,30.24,29.99,21,7,21,0.36
2013-11-26,50,44,39,41,38,36,88,80,64,30.33,30.07,33,11,33,0.05
2013-11-27,55,44,36,36,34,32,86,68,41,30.44,30.32,21,4,21,0.00
2013-11-28,59,44,0,46,36,0,86,65,55,30.40,30.30,11,2,12,0.00
2013-11-29,69,41,0,60,36,0,87,52,73,30.39,30.30,18,2,18,0.00
2013-11-30,73,67,57,64,58,53,87,75,65,30.32,30.16,17,3,17,0.00
2013-12-1,78,69,60,66,61,52,87,77,64,30.17,29.94,17,5,17,0.00
2013-12-2,81,66,56,67,60,52,89,82,60,29.94,29.70,13,3,14,0.01
2013-12-3,83,69,61,70,63,57,88,82,62,29.73,29.60,20,6,20,0.01
2013-12-4,80,72,66,72,67,62,88,84,74,29.76,29.65,22,8,22,0.00
2013-12-5,79,65,44,72,60,39,89,84,76,29.97,29.74,24,7,24,0.01
2013-12-6,48,42,37,40,36,30,85,78,69,30.34,29.95,25,9,25,0.00
2013-12-7,37,36,35,32,30,29,84,81,77,30.40,30.23,18,6,18,0.00
2013-12-8,49,42,35,44,38,31,87,83,76,30.24,30.01,10,3,11,0.00
2013-12-9,54,49,43,51,46,39,92,88,86,30.25,29.98,19,5,19,0.02
2013-12-10,49,43,38,39,34,31,87,69,52,30.45,30.25,22,6,22,0.00
2013-12-11,54,48,46,44,39,34,75,69,61,30.45,30.27,15,4,15,0.00
2013-12-12,59,52,47,42,40,38,77,65,49,30.51,30.30,19,5,19,0.00
2013-12-13,70,58,47,62,50,40,85,77,71,30.30,29.84,16,2,16,0.00
2013-12-14,72,59,47,55,48,38,86,68,37,30.29,29.85,26,7,26,0.00
2013-12-15,62,48,36,40,36,31,86,65,35,30.41,30.26,14,3,14,0.00
2013-12-16,68,49,34,48,40,31,88,72,32,30.32,30.19,10,1,11,0.00
2013-12-17,70,55,39,57,48,36,90,80,57,30.30,30.19,14,1,14,0.01
2013-12-18,73,61,46,61,53,43,89,78,57,30.26,30.05,15,3,15,0.01
2013-12-19,77,69,62,67,63,57,86,81,71,30.05,29.79,34,11,34,0.00
2013-12-20,79,71,66,70,66,62,88,84,75,29.82,29.60,33,14,33,0.00
2013-12-21,80,71,62,71,64,56,87,78,56,29.76,29.53,40,10,40,0.00
2013-12-22,74,64,49,57,49,37,84,62,31,30.29,29.75,26,6,26,0.00
2013-12-23,61,48,40,38,33,29,84,59,30,30.49,30.29,18,4,18,0.00
2013-12-24,62,52,35,50,44,31,88,75,59,30.49,30.22,13,2,13,0.00
2013-12-25,70,59,48,60,53,44,87,82,68,30.27,30.16,13,2,13,0.00
2013-12-26,59,55,52,54,50,47,87,82,73,30.34,30.23,19,6,19,0.03
2013-12-27,56,53,51,51,48,47,88,84,78,30.36,30.26,13,3,13,0.05
2013-12-28,66,53,44,48,43,34,87,71,35,30.27,30.02,10,1,10,0.00
2013-12-29,68,55,42,54,48,38,87,77,54,30.08,29.96,16,1,16,0.00
2013-12-30,60,45,42,54,39,35,84,79,73,30.36,30.05,16,6,20,0.04
2013-12-31,48,45,43,42,38,35,87,79,72,30.41,30.23,13,2,13,0.05
2014-1-1,58,51,46,55,47,42,88,86,83,30.23,29.98,10,2,10,0.00
2014-1-2,59,52,38,56,40,29,88,64,41,30.42,30.02,23,6,23,0.01